sensor_id;sensor_type;location;lat;lon;timestamp;temperature;humidity
41220;DHT22;26951;47.338;9.196;2023-10-08T00:01:09;10.20;41.10
41220;DHT22;26951;47.338;9.196;2023-10-08T00:04:00;10.20;41.10
41220;DHT22;26951;47.338;9.196;2023-10-08T00:06:48;10.20;40.00
41220;DHT22;26951;47.338;9.196;2023-10-08T00:09:36;10.10;38.80
41220;DHT22;26951;47.338;9.196;2023-10-08T00:12:21;10.10;39.60
41220;DHT22;26951;47.338;9.196;2023-10-08T00:15:05;10.10;40.40
41220;DHT22;26951;47.338;9.196;2023-10-08T00:17:54;10.10;40.30
41220;DHT22;26951;47.338;9.196;2023-10-08T00:20:38;10.10;39.90
41220;DHT22;26951;47.338;9.196;2023-10-08T00:23:41;10.00;38.00
41220;DHT22;26951;47.338;9.196;2023-10-08T00:26:33;10.10;37.60
41220;DHT22;26951;47.338;9.196;2023-10-08T00:29:19;10.00;36.40
41220;DHT22;26951;47.338;9.196;2023-10-08T00:32:07;10.00;33.50
41220;DHT22;26951;47.338;9.196;2023-10-08T00:34:55;10.10;34.30
41220;DHT22;26951;47.338;9.196;2023-10-08T00:37:40;10.10;34.70
41220;DHT22;26951;47.338;9.196;2023-10-08T00:40:37;10.20;34.00
41220;DHT22;26951;47.338;9.196;2023-10-08T00:43:29;10.30;34.40
41220;DHT22;26951;47.338;9.196;2023-10-08T00:46:17;10.40;34.50
41220;DHT22;26951;47.338;9.196;2023-10-08T00:49:10;10.40;34.00
41220;DHT22;26951;47.338;9.196;2023-10-08T00:52:09;10.50;35.60
41220;DHT22;26951;47.338;9.196;2023-10-08T00:54:54;10.60;35.40
41220;DHT22;26951;47.338;9.196;2023-10-08T00:57:47;10.60;37.10
41220;DHT22;26951;47.338;9.196;2023-10-08T01:04:20;10.60;39.60
41220;DHT22;26951;47.338;9.196;2023-10-08T01:07:12;10.60;40.30
41220;DHT22;26951;47.338;9.196;2023-10-08T01:09:57;10.60;40.90
41220;DHT22;26951;47.338;9.196;2023-10-08T01:12:49;10.50;40.70
41220;DHT22;26951;47.338;9.196;2023-10-08T01:15:48;10.50;41.00
41220;DHT22;26951;47.338;9.196;2023-10-08T01:18:35;10.50;41.30
41220;DHT22;26951;47.338;9.196;2023-10-08T01:21:19;10.40;41.40
41220;DHT22;26951;47.338;9.196;2023-10-08T01:24:18;10.40;41.60
41220;DHT22;26951;47.338;9.196;2023-10-08T01:27:04;10.40;41.60
41220;DHT22;26951;47.338;9.196;2023-10-08T01:29:53;10.30;41.90
41220;DHT22;26951;47.338;9.196;2023-10-08T01:32:37;10.30;42.40
41220;DHT22;26951;47.338;9.196;2023-10-08T01:35:21;10.30;42.90
41220;DHT22;26951;47.338;9.196;2023-10-08T01:38:08;10.30;42.70
41220;DHT22;26951;47.338;9.196;2023-10-08T01:40:57;10.20;43.20
41220;DHT22;26951;47.338;9.196;2023-10-08T01:43:47;10.20;43.40
41220;DHT22;26951;47.338;9.196;2023-10-08T01:46:31;10.20;42.80
41220;DHT22;26951;47.338;9.196;2023-10-08T01:49:16;10.10;41.60
41220;DHT22;26951;47.338;9.196;2023-10-08T01:52:06;10.10;41.30
41220;DHT22;26951;47.338;9.196;2023-10-08T01:54:58;10.20;42.10
41220;DHT22;26951;47.338;9.196;2023-10-08T01:57:44;10.20;43.00
41220;DHT22;26951;47.338;9.196;2023-10-08T02:00:28;10.20;43.30
41220;DHT22;26951;47.338;9.196;2023-10-08T02:03:14;10.20;43.30
41220;DHT22;26951;47.338;9.196;2023-10-08T02:06:02;10.20;43.10
41220;DHT22;26951;47.338;9.196;2023-10-08T02:08:49;10.20;43.40
41220;DHT22;26951;47.338;9.196;2023-10-08T02:11:47;10.20;43.10
41220;DHT22;26951;47.338;9.196;2023-10-08T02:14:35;10.10;43.10
41220;DHT22;26951;47.338;9.196;2023-10-08T02:17:19;10.10;42.70
41220;DHT22;26951;47.338;9.196;2023-10-08T02:20:04;10.10;43.60
41220;DHT22;26951;47.338;9.196;2023-10-08T02:22:49;10.10;43.30
41220;DHT22;26951;47.338;9.196;2023-10-08T02:25:33;10.10;43.90
41220;DHT22;26951;47.338;9.196;2023-10-08T02:28:21;10.10;44.40
41220;DHT22;26951;47.338;9.196;2023-10-08T02:31:08;10.10;44.70
41220;DHT22;26951;47.338;9.196;2023-10-08T02:33:52;10.10;44.50
41220;DHT22;26951;47.338;9.196;2023-10-08T02:36:38;10.10;45.00
41220;DHT22;26951;47.338;9.196;2023-10-08T02:39:24;10.10;45.30
41220;DHT22;26951;47.338;9.196;2023-10-08T02:42:11;10.10;45.40
41220;DHT22;26951;47.338;9.196;2023-10-08T02:44:58;10.10;46.20
41220;DHT22;26951;47.338;9.196;2023-10-08T02:47:45;10.10;46.70
41220;DHT22;26951;47.338;9.196;2023-10-08T02:50:29;10.10;46.60
41220;DHT22;26951;47.338;9.196;2023-10-08T02:53:14;10.10;46.60
41220;DHT22;26951;47.338;9.196;2023-10-08T02:56:07;10.10;46.90
41220;DHT22;26951;47.338;9.196;2023-10-08T02:58:56;10.10;46.90
41220;DHT22;26951;47.338;9.196;2023-10-08T03:01:41;10.10;47.60
41220;DHT22;26951;47.338;9.196;2023-10-08T03:04:25;10.10;47.90
41220;DHT22;26951;47.338;9.196;2023-10-08T03:07:15;10.10;48.00
41220;DHT22;26951;47.338;9.196;2023-10-08T03:10:05;10.10;48.30
41220;DHT22;26951;47.338;9.196;2023-10-08T03:12:50;10.10;47.90
41220;DHT22;26951;47.338;9.196;2023-10-08T03:15:34;10.10;47.50
41220;DHT22;26951;47.338;9.196;2023-10-08T03:18:41;10.10;47.20
41220;DHT22;26951;47.338;9.196;2023-10-08T03:21:26;10.20;47.00
41220;DHT22;26951;47.338;9.196;2023-10-08T03:24:23;10.30;47.50
41220;DHT22;26951;47.338;9.196;2023-10-08T03:27:14;10.30;48.10
41220;DHT22;26951;47.338;9.196;2023-10-08T03:30:05;10.30;48.20
41220;DHT22;26951;47.338;9.196;2023-10-08T03:32:50;10.30;48.70
41220;DHT22;26951;47.338;9.196;2023-10-08T03:35:35;10.40;48.20
41220;DHT22;26951;47.338;9.196;2023-10-08T03:38:21;10.30;47.60
41220;DHT22;26951;47.338;9.196;2023-10-08T03:41:12;10.30;48.20
41220;DHT22;26951;47.338;9.196;2023-10-08T03:44:04;10.30;48.50
41220;DHT22;26951;47.338;9.196;2023-10-08T03:47:08;10.30;48.90
41220;DHT22;26951;47.338;9.196;2023-10-08T03:49:55;10.30;49.00
41220;DHT22;26951;47.338;9.196;2023-10-08T03:52:39;10.30;49.80
41220;DHT22;26951;47.338;9.196;2023-10-08T03:55:23;10.30;49.80
41220;DHT22;26951;47.338;9.196;2023-10-08T03:58:10;10.30;50.00
41220;DHT22;26951;47.338;9.196;2023-10-08T04:01:11;10.30;49.70
41220;DHT22;26951;47.338;9.196;2023-10-08T04:04:02;10.30;49.70
41220;DHT22;26951;47.338;9.196;2023-10-08T04:06:46;10.30;50.50
41220;DHT22;26951;47.338;9.196;2023-10-08T04:09:35;10.40;49.80
41220;DHT22;26951;47.338;9.196;2023-10-08T04:12:20;10.40;50.00
41220;DHT22;26951;47.338;9.196;2023-10-08T04:15:04;10.40;50.20
41220;DHT22;26951;47.338;9.196;2023-10-08T04:17:51;10.40;50.50
41220;DHT22;26951;47.338;9.196;2023-10-08T04:20:36;10.40;50.80
41220;DHT22;26951;47.338;9.196;2023-10-08T04:23:23;10.30;50.30
41220;DHT22;26951;47.338;9.196;2023-10-08T04:26:07;10.30;49.90
41220;DHT22;26951;47.338;9.196;2023-10-08T04:28:54;10.30;49.40
41220;DHT22;26951;47.338;9.196;2023-10-08T04:31:41;10.30;50.00
41220;DHT22;26951;47.338;9.196;2023-10-08T04:34:30;10.30;50.50
41220;DHT22;26951;47.338;9.196;2023-10-08T04:37:17;10.30;50.40
41220;DHT22;26951;47.338;9.196;2023-10-08T04:40:04;10.30;50.70
41220;DHT22;26951;47.338;9.196;2023-10-08T04:42:49;10.30;50.90
41220;DHT22;26951;47.338;9.196;2023-10-08T04:45:33;10.30;51.00
41220;DHT22;26951;47.338;9.196;2023-10-08T04:48:18;10.30;51.00
41220;DHT22;26951;47.338;9.196;2023-10-08T04:51:05;10.30;51.50
41220;DHT22;26951;47.338;9.196;2023-10-08T04:53:49;10.20;50.90
41220;DHT22;26951;47.338;9.196;2023-10-08T04:56:33;10.30;50.70
41220;DHT22;26951;47.338;9.196;2023-10-08T04:59:17;10.30;50.90
41220;DHT22;26951;47.338;9.196;2023-10-08T05:02:06;10.30;50.70
41220;DHT22;26951;47.338;9.196;2023-10-08T05:05:09;10.40;50.40
41220;DHT22;26951;47.338;9.196;2023-10-08T05:07:56;10.40;50.40
41220;DHT22;26951;47.338;9.196;2023-10-08T05:11:01;10.40;50.10
41220;DHT22;26951;47.338;9.196;2023-10-08T05:13:58;10.40;50.40
41220;DHT22;26951;47.338;9.196;2023-10-08T05:16:50;10.40;50.30
41220;DHT22;26951;47.338;9.196;2023-10-08T05:19:44;10.40;50.80
41220;DHT22;26951;47.338;9.196;2023-10-08T05:22:33;10.30;51.00
41220;DHT22;26951;47.338;9.196;2023-10-08T05:25:17;10.30;51.20
41220;DHT22;26951;47.338;9.196;2023-10-08T05:28:01;10.30;51.60
41220;DHT22;26951;47.338;9.196;2023-10-08T05:30:53;10.30;51.50
41220;DHT22;26951;47.338;9.196;2023-10-08T05:33:56;10.30;52.20
41220;DHT22;26951;47.338;9.196;2023-10-08T05:37:01;10.30;52.30
41220;DHT22;26951;47.338;9.196;2023-10-08T05:39:51;10.30;52.50
41220;DHT22;26951;47.338;9.196;2023-10-08T05:42:54;10.30;53.00
41220;DHT22;26951;47.338;9.196;2023-10-08T05:45:45;10.20;53.00
41220;DHT22;26951;47.338;9.196;2023-10-08T05:48:37;10.20;53.10
41220;DHT22;26951;47.338;9.196;2023-10-08T05:51:33;10.20;52.80
41220;DHT22;26951;47.338;9.196;2023-10-08T05:54:48;10.30;53.20
41220;DHT22;26951;47.338;9.196;2023-10-08T05:58:05;10.30;53.00
41220;DHT22;26951;47.338;9.196;2023-10-08T06:01:09;10.40;52.60
41220;DHT22;26951;47.338;9.196;2023-10-08T06:04:09;10.40;53.10
41220;DHT22;26951;47.338;9.196;2023-10-08T06:07:15;10.40;53.70
41220;DHT22;26951;47.338;9.196;2023-10-08T06:10:17;10.40;54.00
41220;DHT22;26951;47.338;9.196;2023-10-08T06:13:16;10.50;55.00
41220;DHT22;26951;47.338;9.196;2023-10-08T06:16:00;10.50;55.40
41220;DHT22;26951;47.338;9.196;2023-10-08T06:18:44;10.60;55.70
41220;DHT22;26951;47.338;9.196;2023-10-08T06:21:28;10.60;55.90
41220;DHT22;26951;47.338;9.196;2023-10-08T06:24:13;10.70;56.60
41220;DHT22;26951;47.338;9.196;2023-10-08T06:27:01;10.70;56.50
41220;DHT22;26951;47.338;9.196;2023-10-08T06:29:48;10.80;56.60
41220;DHT22;26951;47.338;9.196;2023-10-08T06:32:33;10.90;56.70
41220;DHT22;26951;47.338;9.196;2023-10-08T06:35:17;10.90;57.00
41220;DHT22;26951;47.338;9.196;2023-10-08T06:38:02;11.00;57.80
41220;DHT22;26951;47.338;9.196;2023-10-08T06:40:51;11.00;58.50
41220;DHT22;26951;47.338;9.196;2023-10-08T06:43:37;11.20;59.00
41220;DHT22;26951;47.338;9.196;2023-10-08T06:46:21;11.20;58.50
41220;DHT22;26951;47.338;9.196;2023-10-08T06:49:08;11.40;58.90
41220;DHT22;26951;47.338;9.196;2023-10-08T06:51:55;11.50;60.40
41220;DHT22;26951;47.338;9.196;2023-10-08T06:54:39;11.70;62.60
41220;DHT22;26951;47.338;9.196;2023-10-08T06:57:23;12.00;63.70
41220;DHT22;26951;47.338;9.196;2023-10-08T07:00:11;12.30;66.20
41220;DHT22;26951;47.338;9.196;2023-10-08T07:03:16;12.70;69.00
41220;DHT22;26951;47.338;9.196;2023-10-08T07:06:01;13.20;68.80
41220;DHT22;26951;47.338;9.196;2023-10-08T07:08:46;13.60;68.30
41220;DHT22;26951;47.338;9.196;2023-10-08T07:11:34;14.10;65.60
41220;DHT22;26951;47.338;9.196;2023-10-08T07:14:19;14.50;62.80
41220;DHT22;26951;47.338;9.196;2023-10-08T07:17:03;15.00;61.20
41220;DHT22;26951;47.338;9.196;2023-10-08T07:19:52;15.50;60.60
41220;DHT22;26951;47.338;9.196;2023-10-08T07:22:37;15.90;56.70
41220;DHT22;26951;47.338;9.196;2023-10-08T07:25:22;16.40;56.20
41220;DHT22;26951;47.338;9.196;2023-10-08T07:28:07;16.80;54.00
41220;DHT22;26951;47.338;9.196;2023-10-08T07:30:56;17.20;53.10
41220;DHT22;26951;47.338;9.196;2023-10-08T07:33:42;17.60;53.50
41220;DHT22;26951;47.338;9.196;2023-10-08T07:36:27;18.00;52.00
41220;DHT22;26951;47.338;9.196;2023-10-08T07:39:11;18.40;50.60
41220;DHT22;26951;47.338;9.196;2023-10-08T07:42:15;18.80;48.70
41220;DHT22;26951;47.338;9.196;2023-10-08T07:44:59;19.10;47.90
41220;DHT22;26951;47.338;9.196;2023-10-08T07:47:43;19.50;47.30
41220;DHT22;26951;47.338;9.196;2023-10-08T07:50:28;19.80;46.80
41220;DHT22;26951;47.338;9.196;2023-10-08T07:53:13;20.10;46.40
41220;DHT22;26951;47.338;9.196;2023-10-08T07:56:02;20.50;46.70
41220;DHT22;26951;47.338;9.196;2023-10-08T07:58:47;20.80;45.90
41220;DHT22;26951;47.338;9.196;2023-10-08T08:01:31;21.10;43.90
41220;DHT22;26951;47.338;9.196;2023-10-08T08:04:17;21.40;45.60
41220;DHT22;26951;47.338;9.196;2023-10-08T08:07:08;21.70;44.50
41220;DHT22;26951;47.338;9.196;2023-10-08T08:09:52;22.10;44.60
41220;DHT22;26951;47.338;9.196;2023-10-08T08:12:43;22.30;42.50
41220;DHT22;26951;47.338;9.196;2023-10-08T08:15:28;22.60;42.50
41220;DHT22;26951;47.338;9.196;2023-10-08T08:18:13;22.90;41.20
41220;DHT22;26951;47.338;9.196;2023-10-08T08:21:10;23.20;40.80
41220;DHT22;26951;47.338;9.196;2023-10-08T08:23:58;23.40;41.80
41220;DHT22;26951;47.338;9.196;2023-10-08T08:26:48;23.70;39.00
41220;DHT22;26951;47.338;9.196;2023-10-08T08:29:45;23.90;37.10
41220;DHT22;26951;47.338;9.196;2023-10-08T08:32:30;24.20;40.40
41220;DHT22;26951;47.338;9.196;2023-10-08T08:35:14;24.40;38.20
41220;DHT22;26951;47.338;9.196;2023-10-08T08:38:00;24.60;37.30
41220;DHT22;26951;47.338;9.196;2023-10-08T08:40:45;24.80;36.50
41220;DHT22;26951;47.338;9.196;2023-10-08T08:43:29;25.00;37.00
41220;DHT22;26951;47.338;9.196;2023-10-08T08:46:17;25.20;35.70
41220;DHT22;26951;47.338;9.196;2023-10-08T08:49:04;25.40;34.60
41220;DHT22;26951;47.338;9.196;2023-10-08T08:51:48;25.50;32.10
41220;DHT22;26951;47.338;9.196;2023-10-08T08:54:37;25.60;34.80
41220;DHT22;26951;47.338;9.196;2023-10-08T08:57:22;25.80;35.50
41220;DHT22;26951;47.338;9.196;2023-10-08T09:00:08;26.00;34.70
41220;DHT22;26951;47.338;9.196;2023-10-08T09:02:54;26.20;33.80
41220;DHT22;26951;47.338;9.196;2023-10-08T09:05:39;26.30;34.20
41220;DHT22;26951;47.338;9.196;2023-10-08T09:08:33;26.40;34.10
41220;DHT22;26951;47.338;9.196;2023-10-08T09:11:17;26.50;32.80
41220;DHT22;26951;47.338;9.196;2023-10-08T09:14:02;26.70;33.70
41220;DHT22;26951;47.338;9.196;2023-10-08T09:16:46;26.80;33.70
41220;DHT22;26951;47.338;9.196;2023-10-08T09:19:38;26.90;32.90
41220;DHT22;26951;47.338;9.196;2023-10-08T09:22:22;27.00;33.10
41220;DHT22;26951;47.338;9.196;2023-10-08T09:25:06;27.20;32.60
41220;DHT22;26951;47.338;9.196;2023-10-08T09:27:55;27.30;31.40
41220;DHT22;26951;47.338;9.196;2023-10-08T09:30:40;27.40;31.00
41220;DHT22;26951;47.338;9.196;2023-10-08T09:33:25;27.50;31.60
41220;DHT22;26951;47.338;9.196;2023-10-08T09:36:09;27.70;31.10
41220;DHT22;26951;47.338;9.196;2023-10-08T09:39:03;27.80;31.20
41220;DHT22;26951;47.338;9.196;2023-10-08T09:41:53;27.90;29.90
41220;DHT22;26951;47.338;9.196;2023-10-08T09:44:38;27.90;28.70
41220;DHT22;26951;47.338;9.196;2023-10-08T09:47:25;28.10;30.00
41220;DHT22;26951;47.338;9.196;2023-10-08T09:50:10;28.10;28.70
41220;DHT22;26951;47.338;9.196;2023-10-08T09:53:09;28.20;27.80
41220;DHT22;26951;47.338;9.196;2023-10-08T09:56:13;28.40;29.00
41220;DHT22;26951;47.338;9.196;2023-10-08T09:59:02;28.50;28.60
41220;DHT22;26951;47.338;9.196;2023-10-08T10:01:46;28.40;22.80
41220;DHT22;26951;47.338;9.196;2023-10-08T10:04:31;28.50;27.80
41220;DHT22;26951;47.338;9.196;2023-10-08T10:07:16;28.60;28.10
41220;DHT22;26951;47.338;9.196;2023-10-08T10:10:00;28.60;25.90
41220;DHT22;26951;47.338;9.196;2023-10-08T10:12:44;28.80;28.10
41220;DHT22;26951;47.338;9.196;2023-10-08T10:15:29;28.80;23.70
41220;DHT22;26951;47.338;9.196;2023-10-08T10:23:56;29.00;25.20
41220;DHT22;26951;47.338;9.196;2023-10-08T10:26:41;29.00;24.30
41220;DHT22;26951;47.338;9.196;2023-10-08T10:29:29;29.00;23.70
41220;DHT22;26951;47.338;9.196;2023-10-08T10:32:16;29.00;22.40
41220;DHT22;26951;47.338;9.196;2023-10-08T10:35:01;29.00;21.60
41220;DHT22;26951;47.338;9.196;2023-10-08T10:37:47;28.90;21.40
41220;DHT22;26951;47.338;9.196;2023-10-08T10:40:36;28.80;21.90
41220;DHT22;26951;47.338;9.196;2023-10-08T10:43:26;28.90;20.80
41220;DHT22;26951;47.338;9.196;2023-10-08T10:46:17;29.00;21.40
41220;DHT22;26951;47.338;9.196;2023-10-08T10:49:13;29.00;21.50
41220;DHT22;26951;47.338;9.196;2023-10-08T10:52:15;29.00;22.00
41220;DHT22;26951;47.338;9.196;2023-10-08T10:55:15;28.90;21.10
41220;DHT22;26951;47.338;9.196;2023-10-08T10:58:01;28.90;21.30
41220;DHT22;26951;47.338;9.196;2023-10-08T11:00:55;28.80;21.70
41220;DHT22;26951;47.338;9.196;2023-10-08T11:03:43;28.90;21.60
41220;DHT22;26951;47.338;9.196;2023-10-08T11:06:28;29.00;21.60
41220;DHT22;26951;47.338;9.196;2023-10-08T11:09:13;29.10;19.50
41220;DHT22;26951;47.338;9.196;2023-10-08T11:12:19;28.80;19.70
41220;DHT22;26951;47.338;9.196;2023-10-08T11:15:07;28.60;19.20
41220;DHT22;26951;47.338;9.196;2023-10-08T11:17:58;28.40;18.60
41220;DHT22;26951;47.338;9.196;2023-10-08T11:20:44;28.10;21.00
41220;DHT22;26951;47.338;9.196;2023-10-08T11:23:32;28.20;19.90
41220;DHT22;26951;47.338;9.196;2023-10-08T11:26:23;28.10;21.20
41220;DHT22;26951;47.338;9.196;2023-10-08T11:29:16;28.00;21.00
41220;DHT22;26951;47.338;9.196;2023-10-08T11:32:12;27.80;19.40
41220;DHT22;26951;47.338;9.196;2023-10-08T11:35:00;27.70;19.60
41220;DHT22;26951;47.338;9.196;2023-10-08T11:38:00;27.70;20.90
41220;DHT22;26951;47.338;9.196;2023-10-08T11:40:47;27.80;23.60
41220;DHT22;26951;47.338;9.196;2023-10-08T11:43:40;27.80;23.60
41220;DHT22;26951;47.338;9.196;2023-10-08T11:46:26;27.80;24.60
41220;DHT22;26951;47.338;9.196;2023-10-08T11:49:12;27.80;24.60
41220;DHT22;26951;47.338;9.196;2023-10-08T11:52:02;27.80;26.70
41220;DHT22;26951;47.338;9.196;2023-10-08T11:54:46;28.00;25.40
41220;DHT22;26951;47.338;9.196;2023-10-08T11:57:32;28.20;24.00
41220;DHT22;26951;47.338;9.196;2023-10-08T12:00:19;28.40;24.20
41220;DHT22;26951;47.338;9.196;2023-10-08T12:03:03;28.50;21.10
41220;DHT22;26951;47.338;9.196;2023-10-08T12:05:50;28.40;21.20
41220;DHT22;26951;47.338;9.196;2023-10-08T12:08:43;28.40;19.80
41220;DHT22;26951;47.338;9.196;2023-10-08T12:11:29;28.40;19.70
41220;DHT22;26951;47.338;9.196;2023-10-08T12:14:16;28.40;18.80
41220;DHT22;26951;47.338;9.196;2023-10-08T12:17:00;28.50;18.50
41220;DHT22;26951;47.338;9.196;2023-10-08T12:19:49;28.60;17.10
41220;DHT22;26951;47.338;9.196;2023-10-08T12:22:35;28.70;19.40
41220;DHT22;26951;47.338;9.196;2023-10-08T12:25:20;28.70;16.00
41220;DHT22;26951;47.338;9.196;2023-10-08T12:28:07;28.70;17.60
41220;DHT22;26951;47.338;9.196;2023-10-08T12:30:51;28.50;16.80
41220;DHT22;26951;47.338;9.196;2023-10-08T12:33:40;28.50;18.10
41220;DHT22;26951;47.338;9.196;2023-10-08T12:36:24;28.50;17.50
41220;DHT22;26951;47.338;9.196;2023-10-08T12:39:10;28.50;17.70
41220;DHT22;26951;47.338;9.196;2023-10-08T12:41:59;28.40;17.10
41220;DHT22;26951;47.338;9.196;2023-10-08T12:44:49;28.30;18.10
41220;DHT22;26951;47.338;9.196;2023-10-08T12:47:33;28.00;18.80
41220;DHT22;26951;47.338;9.196;2023-10-08T12:50:20;27.90;20.80
41220;DHT22;26951;47.338;9.196;2023-10-08T12:53:13;27.80;23.50
41220;DHT22;26951;47.338;9.196;2023-10-08T12:56:07;27.60;23.70
41220;DHT22;26951;47.338;9.196;2023-10-08T12:58:58;27.40;24.70
41220;DHT22;26951;47.338;9.196;2023-10-08T13:01:42;27.30;26.60
41220;DHT22;26951;47.338;9.196;2023-10-08T13:04:27;27.10;27.70
41220;DHT22;26951;47.338;9.196;2023-10-08T13:07:12;26.90;27.30
41220;DHT22;26951;47.338;9.196;2023-10-08T13:09:58;26.70;28.50
41220;DHT22;26951;47.338;9.196;2023-10-08T13:12:43;26.60;28.90
41220;DHT22;26951;47.338;9.196;2023-10-08T13:15:27;26.40;30.00
41220;DHT22;26951;47.338;9.196;2023-10-08T13:18:11;26.20;30.30
41220;DHT22;26951;47.338;9.196;2023-10-08T13:20:56;25.90;31.50
41220;DHT22;26951;47.338;9.196;2023-10-08T13:23:41;25.80;32.30
41220;DHT22;26951;47.338;9.196;2023-10-08T13:26:26;25.60;31.80
41220;DHT22;26951;47.338;9.196;2023-10-08T13:29:15;25.40;32.30
41220;DHT22;26951;47.338;9.196;2023-10-08T13:32:02;25.30;33.50
41220;DHT22;26951;47.338;9.196;2023-10-08T13:34:48;25.20;34.10
41220;DHT22;26951;47.338;9.196;2023-10-08T13:37:34;25.10;34.30
41220;DHT22;26951;47.338;9.196;2023-10-08T13:40:18;25.10;34.10
41220;DHT22;26951;47.338;9.196;2023-10-08T13:43:02;25.00;34.10
41220;DHT22;26951;47.338;9.196;2023-10-08T13:45:46;25.00;35.20
41220;DHT22;26951;47.338;9.196;2023-10-08T13:48:31;24.90;34.50
41220;DHT22;26951;47.338;9.196;2023-10-08T13:51:19;24.90;34.00
41220;DHT22;26951;47.338;9.196;2023-10-08T13:54:10;24.80;34.30
41220;DHT22;26951;47.338;9.196;2023-10-08T13:56:58;24.80;34.80
41220;DHT22;26951;47.338;9.196;2023-10-08T13:59:48;24.70;35.20
41220;DHT22;26951;47.338;9.196;2023-10-08T14:02:32;24.80;35.10
41220;DHT22;26951;47.338;9.196;2023-10-08T14:05:17;24.70;34.20
41220;DHT22;26951;47.338;9.196;2023-10-08T14:08:01;24.70;35.50
41220;DHT22;26951;47.338;9.196;2023-10-08T14:10:47;24.70;34.70
41220;DHT22;26951;47.338;9.196;2023-10-08T14:13:32;24.60;35.00
41220;DHT22;26951;47.338;9.196;2023-10-08T14:16:17;24.60;34.60
41220;DHT22;26951;47.338;9.196;2023-10-08T14:19:02;24.60;35.10
41220;DHT22;26951;47.338;9.196;2023-10-08T14:21:49;24.60;35.70
41220;DHT22;26951;47.338;9.196;2023-10-08T14:24:53;24.60;35.60
41220;DHT22;26951;47.338;9.196;2023-10-08T14:27:43;24.60;35.00
41220;DHT22;26951;47.338;9.196;2023-10-08T14:30:36;24.60;35.30
41220;DHT22;26951;47.338;9.196;2023-10-08T14:33:25;24.60;35.60
41220;DHT22;26951;47.338;9.196;2023-10-08T14:36:10;24.60;36.10
41220;DHT22;26951;47.338;9.196;2023-10-08T14:39:13;24.70;36.90
41220;DHT22;26951;47.338;9.196;2023-10-08T14:42:17;24.60;36.40
41220;DHT22;26951;47.338;9.196;2023-10-08T14:45:23;24.70;36.40
41220;DHT22;26951;47.338;9.196;2023-10-08T14:48:10;24.70;36.20
41220;DHT22;26951;47.338;9.196;2023-10-08T14:50:57;24.70;36.80
41220;DHT22;26951;47.338;9.196;2023-10-08T14:53:42;24.80;37.70
41220;DHT22;26951;47.338;9.196;2023-10-08T14:56:26;24.80;37.40
41220;DHT22;26951;47.338;9.196;2023-10-08T14:59:14;24.80;36.70
41220;DHT22;26951;47.338;9.196;2023-10-08T15:01:59;24.80;36.40
41220;DHT22;26951;47.338;9.196;2023-10-08T15:04:43;24.80;36.30
41220;DHT22;26951;47.338;9.196;2023-10-08T15:07:28;24.80;36.50
41220;DHT22;26951;47.338;9.196;2023-10-08T15:10:12;24.80;37.50
41220;DHT22;26951;47.338;9.196;2023-10-08T15:12:57;24.80;37.70
41220;DHT22;26951;47.338;9.196;2023-10-08T15:15:41;24.80;38.20
41220;DHT22;26951;47.338;9.196;2023-10-08T15:18:26;24.70;38.00
41220;DHT22;26951;47.338;9.196;2023-10-08T15:21:15;24.60;37.60
41220;DHT22;26951;47.338;9.196;2023-10-08T15:24:01;24.60;37.80
41220;DHT22;26951;47.338;9.196;2023-10-08T15:26:53;24.50;38.60
41220;DHT22;26951;47.338;9.196;2023-10-08T15:29:38;24.40;38.60
41220;DHT22;26951;47.338;9.196;2023-10-08T15:32:22;24.30;38.90
41220;DHT22;26951;47.338;9.196;2023-10-08T15:35:07;24.20;39.20
41220;DHT22;26951;47.338;9.196;2023-10-08T15:37:53;24.10;39.90
41220;DHT22;26951;47.338;9.196;2023-10-08T15:40:38;23.90;39.80
41220;DHT22;26951;47.338;9.196;2023-10-08T15:43:22;23.80;40.70
41220;DHT22;26951;47.338;9.196;2023-10-08T15:46:07;23.70;40.30
41220;DHT22;26951;47.338;9.196;2023-10-08T15:48:51;23.60;40.60
41220;DHT22;26951;47.338;9.196;2023-10-08T15:51:35;23.50;40.60
41220;DHT22;26951;47.338;9.196;2023-10-08T15:54:21;23.40;40.80
41220;DHT22;26951;47.338;9.196;2023-10-08T15:57:05;23.20;40.60
41220;DHT22;26951;47.338;9.196;2023-10-08T15:59:50;23.10;40.50
41220;DHT22;26951;47.338;9.196;2023-10-08T16:02:34;22.90;40.20
41220;DHT22;26951;47.338;9.196;2023-10-08T16:05:18;22.70;40.40
41220;DHT22;26951;47.338;9.196;2023-10-08T16:08:03;22.60;40.60
41220;DHT22;26951;47.338;9.196;2023-10-08T16:10:47;22.40;40.50
41220;DHT22;26951;47.338;9.196;2023-10-08T16:13:31;22.20;42.00
41220;DHT22;26951;47.338;9.196;2023-10-08T16:16:15;22.00;41.30
41220;DHT22;26951;47.338;9.196;2023-10-08T16:18:59;21.80;41.40
41220;DHT22;26951;47.338;9.196;2023-10-08T16:21:45;21.60;41.60
41220;DHT22;26951;47.338;9.196;2023-10-08T16:24:29;21.40;41.50
41220;DHT22;26951;47.338;9.196;2023-10-08T16:27:15;21.20;40.50
41220;DHT22;26951;47.338;9.196;2023-10-08T16:29:59;21.00;40.50
41220;DHT22;26951;47.338;9.196;2023-10-08T16:32:44;20.80;41.50
41220;DHT22;26951;47.338;9.196;2023-10-08T16:35:28;20.60;41.50
41220;DHT22;26951;47.338;9.196;2023-10-08T16:38:13;20.40;41.50
41220;DHT22;26951;47.338;9.196;2023-10-08T16:40:58;20.20;41.40
41220;DHT22;26951;47.338;9.196;2023-10-08T16:43:42;20.10;41.80
41220;DHT22;26951;47.338;9.196;2023-10-08T16:46:26;19.90;42.10
41220;DHT22;26951;47.338;9.196;2023-10-08T16:49:11;19.70;41.70
41220;DHT22;26951;47.338;9.196;2023-10-08T16:51:55;19.50;41.70
41220;DHT22;26951;47.338;9.196;2023-10-08T16:54:39;19.40;41.70
41220;DHT22;26951;47.338;9.196;2023-10-08T16:57:24;19.20;41.50
41220;DHT22;26951;47.338;9.196;2023-10-08T17:00:09;19.10;41.70
41220;DHT22;26951;47.338;9.196;2023-10-08T17:02:56;18.90;41.80
41220;DHT22;26951;47.338;9.196;2023-10-08T17:05:43;18.80;42.20
41220;DHT22;26951;47.338;9.196;2023-10-08T17:08:28;18.60;42.20
41220;DHT22;26951;47.338;9.196;2023-10-08T17:11:12;18.50;43.30
41220;DHT22;26951;47.338;9.196;2023-10-08T17:13:57;18.40;43.60
41220;DHT22;26951;47.338;9.196;2023-10-08T17:16:42;18.30;44.40
41220;DHT22;26951;47.338;9.196;2023-10-08T17:19:26;18.30;44.50
41220;DHT22;26951;47.338;9.196;2023-10-08T17:22:10;18.20;43.90
41220;DHT22;26951;47.338;9.196;2023-10-08T17:24:54;18.10;44.30
41220;DHT22;26951;47.338;9.196;2023-10-08T17:27:40;18.00;44.50
41220;DHT22;26951;47.338;9.196;2023-10-08T17:30:30;17.90;44.40
41220;DHT22;26951;47.338;9.196;2023-10-08T17:33:16;17.80;43.90
41220;DHT22;26951;47.338;9.196;2023-10-08T17:36:00;17.70;44.00
41220;DHT22;26951;47.338;9.196;2023-10-08T17:38:44;17.60;44.20
41220;DHT22;26951;47.338;9.196;2023-10-08T17:41:28;17.50;44.00
41220;DHT22;26951;47.338;9.196;2023-10-08T17:44:13;17.40;44.00
41220;DHT22;26951;47.338;9.196;2023-10-08T17:46:58;17.40;44.70
41220;DHT22;26951;47.338;9.196;2023-10-08T17:49:42;17.30;44.60